Time;durP1;ratioP1;P1;durP2;ratioP2;P2;SDS_P1;SDS_P2;PMS_P1;PMS_P2;Temp;Humidity;BMP_temperature;BMP_pressure;BME280_temperature;BME280_humidity;BME280_pressure;Samples;Min_cycle;Max_cycle;Signal;HPM_P1;HPM_P2
2021/09/03 00:02:04;;;;;;;12.50;4.70;;;;;;;12.15;76.58;101032.73;111689;1201;25023;-57
2021/09/03 00:04:32;;;;;;;13.10;4.60;;;;;;;12.12;76.53;101030.89;111874;1201;22438;-56
2021/09/03 00:07:01;;;;;;;17.90;5.00;;;;;;;12.08;76.60;101031.61;111771;1201;22429;-57
2021/09/03 00:09:29;;;;;;;12.90;4.70;;;;;;;12.05;76.55;101027.61;111652;1201;22449;-57
2021/09/03 00:11:57;;;;;;;12.50;4.20;;;;;;;12.01;76.73;101026.29;111718;1201;22447;-57
2021/09/03 00:14:25;;;;;;;14.70;4.10;;;;;;;11.97;76.63;101030.77;111770;1201;25078;-58
2021/09/03 00:16:54;;;;;;;12.80;3.90;;;;;;;11.95;76.67;101025.06;111686;1201;22480;-58
2021/09/03 00:19:22;;;;;;;14.10;4.70;;;;;;;11.93;76.87;101019.52;111871;1200;22892;-57
2021/09/03 00:21:52;;;;;;;13.80;4.10;;;;;;;11.91;76.81;101015.60;111760;1201;22740;-57
2021/09/03 00:24:21;;;;;;;10.20;3.10;;;;;;;11.89;76.84;101012.05;111870;1201;22452;-58
2021/09/03 00:26:49;;;;;;;15.30;4.80;;;;;;;11.88;76.97;101012.26;111841;1201;25022;-57
2021/09/03 00:29:17;;;;;;;14.30;4.50;;;;;;;11.87;76.98;101007.41;112109;1201;22905;-57
2021/09/03 00:31:46;;;;;;;11.10;3.80;;;;;;;11.85;77.05;101008.09;111843;1201;23621;-58
2021/09/03 00:34:14;;;;;;;15.30;4.30;;;;;;;11.81;76.96;101005.16;111780;1201;22441;-57
2021/09/03 00:36:43;;;;;;;13.30;4.10;;;;;;;11.79;77.23;101007.19;111661;1201;22453;-56
2021/09/03 00:39:12;;;;;;;11.10;4.20;;;;;;;11.76;76.97;101007.12;111965;1201;25021;-56
2021/09/03 00:41:40;;;;;;;14.10;4.00;;;;;;;11.73;77.05;101007.42;111922;1201;25527;-57
2021/09/03 00:44:08;;;;;;;14.10;4.30;;;;;;;11.70;77.22;101006.39;111726;1201;25000;-58
2021/09/03 00:46:36;;;;;;;12.90;3.90;;;;;;;11.66;77.09;101005.25;111761;1201;23518;-58
2021/09/03 00:49:04;;;;;;;10.80;4.50;;;;;;;11.62;77.06;101005.09;111739;1201;22449;-57
2021/09/03 00:51:32;;;;;;;12.60;4.00;;;;;;;11.60;77.29;101001.77;111805;1201;24068;-58
2021/09/03 00:54:01;;;;;;;14.70;4.10;;;;;;;11.57;77.22;100995.99;111817;1201;25304;-59
2021/09/03 00:56:29;;;;;;;14.40;4.40;;;;;;;11.54;77.13;100997.09;112038;1201;25573;-57
2021/09/03 00:59:00;;;;;;;16.30;4.70;;;;;;;11.52;77.23;100999.17;112148;1201;25259;-55
2021/09/03 01:01:28;;;;;;;12.40;4.40;;;;;;;11.49;77.26;100996.20;111981;1203;22441;-57
2021/09/03 01:03:58;;;;;;;13.30;4.50;;;;;;;11.45;77.26;100993.81;111867;1202;22430;-57
2021/09/03 01:06:27;;;;;;;11.50;3.90;;;;;;;11.42;77.25;100986.09;111686;1202;22544;-57
2021/09/03 01:08:55;;;;;;;12.60;4.20;;;;;;;11.40;77.30;100986.52;111791;1201;25158;-58
2021/09/03 01:11:23;;;;;;;17.20;4.80;;;;;;;11.38;77.27;100984.54;111722;1201;22550;-55
2021/09/03 01:13:53;;;;;;;13.50;4.30;;;;;;;11.35;77.18;100981.67;111670;1203;24260;-57
2021/09/03 01:16:21;;;;;;;13.40;4.20;;;;;;;11.32;77.25;100980.58;111863;1201;22443;-57
2021/09/03 01:18:50;;;;;;;15.90;4.60;;;;;;;11.29;77.26;100983.65;111604;1201;22439;-57
2021/09/03 01:21:19;;;;;;;14.30;4.50;;;;;;;11.25;77.31;100980.48;111869;1200;25178;-57
2021/09/03 01:23:47;;;;;;;11.90;4.20;;;;;;;11.22;77.21;100977.09;112021;1201;22434;-56
2021/09/03 01:26:16;;;;;;;12.90;4.40;;;;;;;11.20;77.57;100975.36;111919;1200;22460;-57
2021/09/03 01:28:49;;;;;;;14.40;4.90;;;;;;;11.18;77.31;100975.56;111835;1201;25039;-58
2021/09/03 01:31:17;;;;;;;12.90;4.20;;;;;;;11.17;77.37;100971.00;111780;1202;22446;-57
2021/09/03 01:33:47;;;;;;;13.30;4.10;;;;;;;11.17;77.35;100974.86;111615;1203;25614;-57
2021/09/03 01:36:18;;;;;;;15.80;4.70;;;;;;;11.14;77.38;100979.83;111788;1201;25171;-57
2021/09/03 01:38:46;;;;;;;15.50;6.00;;;;;;;11.11;77.46;100973.52;111932;1200;22440;-57
2021/09/03 01:41:15;;;;;;;12.50;4.40;;;;;;;11.07;77.67;100977.36;111680;1201;22554;-57
2021/09/03 01:43:44;;;;;;;13.60;4.40;;;;;;;11.04;77.78;100966.71;111841;1200;24141;-57
2021/09/03 01:46:12;;;;;;;16.40;4.90;;;;;;;11.03;77.98;100971.67;112072;1201;24057;-57
2021/09/03 01:48:40;;;;;;;14.40;5.00;;;;;;;11.04;78.09;100968.39;111901;1200;22443;-57
2021/09/03 01:51:09;;;;;;;13.50;4.30;;;;;;;11.03;78.05;100967.45;111780;1203;22555;-57
2021/09/03 01:53:37;;;;;;;13.50;5.10;;;;;;;11.02;78.18;100967.03;112014;1200;22553;-57
2021/09/03 01:56:06;;;;;;;14.30;4.70;;;;;;;11.01;78.03;100967.00;112153;1201;22546;-59
2021/09/03 01:58:35;;;;;;;14.30;5.00;;;;;;;10.99;78.19;100967.09;112000;1201;22472;-57
2021/09/03 02:01:03;;;;;;;13.30;4.00;;;;;;;10.96;78.04;100963.70;111992;1201;22431;-56
2021/09/03 02:03:32;;;;;;;12.20;4.10;;;;;;;10.93;78.00;100962.40;111879;1201;22443;-57
2021/09/03 02:06:00;;;;;;;12.40;4.10;;;;;;;10.91;78.20;100959.60;111879;1201;22455;-58
2021/09/03 02:08:31;;;;;;;14.00;5.30;;;;;;;10.90;78.30;100957.80;111713;1201;22453;-57
2021/09/03 02:10:59;;;;;;;12.90;4.70;;;;;;;10.89;78.20;100957.30;111810;1200;25445;-56
2021/09/03 02:13:28;;;;;;;15.80;5.50;;;;;;;10.86;78.41;100952.54;111737;1202;24046;-58
2021/09/03 02:15:57;;;;;;;14.40;5.40;;;;;;;10.84;78.46;100952.02;111745;1201;22551;-57
2021/09/03 02:18:27;;;;;;;14.90;5.00;;;;;;;10.82;78.59;100952.20;111862;1201;22452;-57
2021/09/03 02:20:58;;;;;;;14.70;5.60;;;;;;;10.80;78.53;100948.69;111787;1201;25920;-57
2021/09/03 02:23:27;;;;;;;19.00;5.90;;;;;;;10.76;78.61;100947.63;111678;1202;24157;-57
2021/09/03 02:25:55;;;;;;;16.70;5.60;;;;;;;10.74;78.59;100947.51;111761;1201;22523;-56
2021/09/03 02:28:23;;;;;;;14.10;5.40;;;;;;;10.72;78.78;100946.05;111788;1201;22452;-57
2021/09/03 02:30:51;;;;;;;14.70;5.00;;;;;;;10.71;78.79;100942.75;111833;1201;24170;-57
2021/09/03 02:33:19;;;;;;;17.80;5.10;;;;;;;10.70;78.83;100940.25;111776;1202;22989;-56
2021/09/03 02:35:47;;;;;;;13.20;4.90;;;;;;;10.69;78.84;100939.81;112006;1201;22486;-58
2021/09/03 02:38:15;;;;;;;15.70;5.60;;;;;;;10.66;78.78;100937.78;111873;1201;25257;-58
2021/09/03 02:40:43;;;;;;;13.90;4.90;;;;;;;10.63;78.60;100939.10;111909;1200;22461;-58
2021/09/03 02:43:12;;;;;;;13.90;4.20;;;;;;;10.60;78.72;100934.82;111876;1201;23538;-57
2021/09/03 02:45:40;;;;;;;12.20;4.30;;;;;;;10.57;78.73;100929.91;112033;1201;22921;-58
2021/09/03 02:48:08;;;;;;;14.20;4.50;;;;;;;10.56;78.81;100931.49;112189;1201;22473;-58
2021/09/03 02:50:39;;;;;;;10.50;3.80;;;;;;;10.54;78.87;100934.23;112262;1201;22554;-57
2021/09/03 02:53:08;;;;;;;11.70;4.10;;;;;;;10.52;78.87;100934.92;112449;1201;25187;-57
2021/09/03 02:55:36;;;;;;;14.80;4.40;;;;;;;10.51;78.78;100931.09;112131;1201;22714;-58
2021/09/03 02:58:08;;;;;;;13.20;4.60;;;;;;;10.48;78.89;100930.48;112538;1196;25238;-55
2021/09/03 03:00:36;;;;;;;13.10;4.40;;;;;;;10.44;78.76;100926.33;111812;1202;22780;-56
2021/09/03 03:03:04;;;;;;;12.80;4.40;;;;;;;10.41;78.73;100926.28;111621;1202;24299;-56
2021/09/03 03:05:32;;;;;;;15.00;4.80;;;;;;;10.39;78.69;100924.05;111690;1202;24236;-54
2021/09/03 03:08:01;;;;;;;13.80;4.20;;;;;;;10.37;78.85;100925.65;111767;1201;22557;-55
2021/09/03 03:10:29;;;;;;;13.40;5.20;;;;;;;10.35;78.74;100924.15;112055;1202;25163;-54
2021/09/03 03:12:58;;;;;;;17.50;4.50;;;;;;;10.34;78.81;100920.69;111774;1201;22429;-58
2021/09/03 03:15:27;;;;;;;14.90;4.30;;;;;;;10.33;78.87;100916.49;111940;1201;25151;-57
2021/09/03 03:17:56;;;;;;;17.40;5.40;;;;;;;10.32;78.89;100919.19;112028;1201;22427;-54
2021/09/03 03:20:25;;;;;;;13.80;4.90;;;;;;;10.29;78.82;100916.58;112201;1200;22446;-56
2021/09/03 03:22:53;;;;;;;16.00;4.80;;;;;;;10.27;78.80;100915.39;112029;1202;22430;-55
2021/09/03 03:25:24;;;;;;;18.60;4.80;;;;;;;10.25;78.78;100915.16;111775;1201;24922;-56
2021/09/03 03:27:52;;;;;;;15.50;5.10;;;;;;;10.22;78.84;100910.50;111849;1201;24205;-57
2021/09/03 03:30:20;;;;;;;17.80;5.30;;;;;;;10.19;78.90;100909.91;111770;1201;22434;-56
2021/09/03 03:32:48;;;;;;;15.50;4.60;;;;;;;10.16;78.95;100904.28;111673;1201;25086;-54
2021/09/03 03:35:16;;;;;;;17.90;5.20;;;;;;;10.14;78.91;100901.65;111684;1201;22452;-59
2021/09/03 03:37:47;;;;;;;15.00;5.10;;;;;;;10.11;78.87;100901.43;111706;1201;25187;-55
2021/09/03 03:40:17;;;;;;;18.00;5.40;;;;;;;10.09;78.90;100905.52;111708;1201;24211;-56
2021/09/03 03:42:45;;;;;;;16.80;4.80;;;;;;;10.06;78.93;100903.47;111922;1201;25147;-54
2021/09/03 03:45:14;;;;;;;16.60;4.90;;;;;;;10.05;78.92;100901.92;111863;1201;22896;-56
2021/09/03 03:47:43;;;;;;;16.50;5.60;;;;;;;10.03;78.85;100897.52;111865;1201;25177;-59
2021/09/03 03:50:13;;;;;;;18.90;6.10;;;;;;;10.01;78.85;100896.89;111803;1202;22553;-58
2021/09/03 03:52:42;;;;;;;20.40;5.60;;;;;;;9.99;78.99;100896.33;111775;1202;22631;-59
2021/09/03 03:55:11;;;;;;;24.30;6.90;;;;;;;9.97;79.01;100893.96;112191;1201;22535;-59
2021/09/03 03:57:40;;;;;;;18.80;6.80;;;;;;;9.94;79.20;100889.83;112032;1201;25051;-61
2021/09/03 04:00:10;;;;;;;20.10;7.60;;;;;;;9.94;79.31;100889.54;111805;1202;22433;-60
2021/09/03 04:02:39;;;;;;;21.20;6.60;;;;;;;9.92;79.28;100886.98;111927;1201;22543;-59
2021/09/03 04:05:09;;;;;;;19.10;6.10;;;;;;;9.91;79.46;100885.20;111700;1201;26550;-60
2021/09/03 04:07:37;;;;;;;17.00;5.70;;;;;;;9.90;79.45;100883.30;111828;1201;22438;-59
2021/09/03 04:10:11;;;;;;;21.00;8.20;;;;;;;9.90;79.34;100884.20;111784;1202;25047;-60
2021/09/03 04:12:40;;;;;;;20.40;7.10;;;;;;;9.88;79.50;100875.11;111862;1202;25075;-59
2021/09/03 04:15:12;;;;;;;16.20;5.60;;;;;;;9.87;79.55;100879.20;111642;1201;24142;-59
2021/09/03 04:17:40;;;;;;;16.80;5.50;;;;;;;9.87;79.53;100875.79;112439;1202;22448;-59
2021/09/03 04:20:12;;;;;;;15.50;6.10;;;;;;;9.86;79.55;100875.01;111768;1201;22430;-59
2021/09/03 04:22:41;;;;;;;16.40;5.60;;;;;;;9.85;79.58;100876.50;111994;1201;22874;-61
2021/09/03 04:25:12;;;;;;;14.20;5.00;;;;;;;9.84;79.55;100872.31;111742;1201;25463;-61
2021/09/03 04:27:44;;;;;;;17.00;5.50;;;;;;;9.83;79.61;100871.06;111758;1201;25234;-59
2021/09/03 04:30:13;;;;;;;19.40;6.60;;;;;;;9.81;79.67;100863.99;111992;1201;22718;-61
2021/09/03 04:32:44;;;;;;;18.60;6.50;;;;;;;9.80;79.81;100871.36;112009;1201;22453;-60
2021/09/03 04:35:13;;;;;;;16.10;5.70;;;;;;;9.80;79.98;100869.55;111742;1201;24927;-57
2021/09/03 04:37:45;;;;;;;17.40;6.60;;;;;;;9.79;80.04;100867.95;111793;1201;22551;-58
2021/09/03 04:40:17;;;;;;;16.80;6.60;;;;;;;9.79;80.06;100862.63;111994;1202;22452;-60
2021/09/03 04:42:45;;;;;;;23.90;8.90;;;;;;;9.78;80.19;100859.70;111900;1202;22484;-60
2021/09/03 04:45:16;;;;;;;26.00;8.80;;;;;;;9.80;80.48;100860.13;111868;1201;22903;-60
2021/09/03 04:47:45;;;;;;;24.80;8.40;;;;;;;9.79;80.48;100856.55;111921;1202;22447;-61
2021/09/03 04:50:16;;;;;;;25.10;8.30;;;;;;;9.79;80.47;100852.83;115903;1201;22466;-60
2021/09/03 04:52:46;;;;;;;25.60;8.70;;;;;;;9.79;80.45;100854.02;112491;1201;24182;-59
2021/09/03 04:55:14;;;;;;;20.80;8.00;;;;;;;9.81;80.64;100851.82;111889;1202;25376;-58
2021/09/03 04:57:44;;;;;;;24.40;7.60;;;;;;;9.83;80.57;100860.71;111891;1201;22561;-59
2021/09/03 05:00:22;;;;;;;21.20;8.00;;;;;;;9.85;80.69;100860.79;112009;1202;25145;-62
2021/09/03 05:02:51;;;;;;;20.20;7.40;;;;;;;9.89;80.74;100860.30;112039;1202;22435;-60
2021/09/03 05:05:19;;;;;;;22.20;8.20;;;;;;;9.93;80.93;100862.61;111836;1202;25095;-60
2021/09/03 05:07:50;;;;;;;21.50;7.70;;;;;;;9.98;81.06;100866.27;112169;1201;22452;-59
2021/09/03 05:10:19;;;;;;;20.10;8.60;;;;;;;10.03;81.30;100869.34;111888;1202;22544;-59
2021/09/03 05:12:48;;;;;;;26.20;8.00;;;;;;;10.08;81.24;100864.96;112066;1202;25095;-59
2021/09/03 05:15:18;;;;;;;24.90;8.50;;;;;;;10.15;81.39;100865.04;111975;1201;22443;-59
2021/09/03 05:17:49;;;;;;;21.00;7.50;;;;;;;10.20;81.72;100863.84;111918;1202;22602;-59
2021/09/03 05:20:19;;;;;;;22.10;7.60;;;;;;;10.27;81.91;100863.16;111914;1202;22558;-59
2021/09/03 05:22:47;;;;;;;23.80;8.50;;;;;;;10.34;82.06;100865.16;111886;1202;25322;-60
2021/09/03 05:25:16;;;;;;;25.90;9.60;;;;;;;10.41;82.38;100862.17;112051;1206;25289;-60
2021/09/03 05:27:44;;;;;;;26.10;10.20;;;;;;;10.47;82.80;100859.66;111997;1202;22435;-59
2021/09/03 05:30:14;;;;;;;20.80;8.70;;;;;;;10.53;83.18;100861.72;112001;1202;25094;-61
2021/09/03 05:32:43;;;;;;;20.60;9.00;;;;;;;10.60;83.53;100861.05;112221;1202;25164;-60
2021/09/03 05:35:13;;;;;;;19.70;8.80;;;;;;;10.67;83.50;100855.88;112007;1202;22425;-58
2021/09/03 05:37:41;;;;;;;22.10;9.20;;;;;;;10.75;83.95;100858.39;111969;1205;22460;-60
2021/09/03 05:40:14;;;;;;;19.70;8.40;;;;;;;10.83;83.79;100857.23;112035;1205;22448;-61
2021/09/03 05:42:42;;;;;;;19.30;8.90;;;;;;;10.90;83.85;100856.05;111951;1201;24095;-59
2021/09/03 05:45:12;;;;;;;20.10;9.20;;;;;;;10.99;84.22;100851.17;111835;1202;22576;-59
2021/09/03 05:47:46;;;;;;;27.00;11.40;;;;;;;11.09;84.42;100851.38;112126;1202;22538;-61
2021/09/03 05:50:17;;;;;;;21.10;10.00;;;;;;;11.19;85.08;100851.71;112059;1201;22486;-61
2021/09/03 05:52:45;;;;;;;27.60;14.60;;;;;;;11.29;85.33;100852.77;111815;1201;22490;-59
2021/09/03 05:55:14;;;;;;;28.50;13.90;;;;;;;11.38;85.77;100850.73;111944;1202;22444;-60
2021/09/03 05:57:42;;;;;;;31.60;14.40;;;;;;;11.48;85.73;100850.05;112077;1201;25093;-60
2021/09/03 06:00:12;;;;;;;34.20;16.10;;;;;;;11.57;86.09;100848.65;111783;1204;22565;-60
2021/09/03 06:02:41;;;;;;;30.80;15.80;;;;;;;11.68;85.97;100841.11;112063;1202;22447;-61
2021/09/03 06:05:12;;;;;;;30.10;15.70;;;;;;;11.77;86.51;100840.42;112106;1201;24159;-61
2021/09/03 06:07:41;;;;;;;29.50;17.00;;;;;;;11.91;86.90;100840.59;112282;1206;22861;-60
2021/09/03 06:10:12;;;;;;;34.10;17.50;;;;;;;12.02;86.91;100834.18;112288;1201;25091;-60
2021/09/03 06:12:40;;;;;;;33.10;17.40;;;;;;;12.13;86.98;100834.92;111987;1202;24783;-60
2021/09/03 06:15:11;;;;;;;29.50;16.00;;;;;;;12.23;87.13;100834.52;111982;1201;24074;-60
2021/09/03 06:17:41;;;;;;;33.50;19.70;;;;;;;12.34;87.20;100831.71;112112;1202;22471;-60
2021/09/03 06:20:12;;;;;;;37.20;20.30;;;;;;;12.47;87.76;100836.80;111991;1205;25277;-59
2021/09/03 06:22:41;;;;;;;42.40;22.00;;;;;;;12.63;88.31;100838.44;112271;1203;25147;-60
2021/09/03 06:25:12;;;;;;;45.00;24.00;;;;;;;12.79;88.66;100837.70;112042;1202;22545;-60
2021/09/03 06:27:40;;;;;;;;;;;;;;;12.94;88.76;100833.35;111955;1202;24063;-60
2021/09/03 06:30:09;;;;;;;38.30;22.20;;;;;;;13.10;89.05;100834.73;111941;1202;22848;-59
2021/09/03 06:32:39;;;;;;;38.50;21.60;;;;;;;13.24;89.02;100832.64;112004;1202;23167;-60
2021/09/03 06:35:10;;;;;;;39.80;21.70;;;;;;;13.38;89.18;100833.45;111974;1202;25176;-60
2021/09/03 06:37:39;;;;;;;32.30;20.70;;;;;;;13.53;89.01;100832.23;112065;1202;22542;-63
2021/09/03 06:40:09;;;;;;;37.40;21.80;;;;;;;13.68;89.20;100830.02;111989;1202;22447;-60
2021/09/03 06:42:37;;;;;;;36.60;20.40;;;;;;;13.85;89.07;100824.72;112022;1202;22499;-59
2021/09/03 06:45:09;;;;;;;33.30;19.20;;;;;;;13.99;88.83;100822.36;111926;1202;22484;-59
2021/09/03 06:47:38;;;;;;;34.50;19.60;;;;;;;14.12;88.88;100820.06;112100;1202;22438;-60
2021/09/03 06:50:09;;;;;;;33.50;17.60;;;;;;;14.25;88.76;100818.44;111828;1202;22464;-60
2021/09/03 06:52:37;;;;;;;32.30;17.60;;;;;;;14.35;88.44;100818.39;112151;1202;25447;-60
2021/09/03 06:55:10;;;;;;;29.90;16.80;;;;;;;14.46;88.42;100816.80;112203;1205;22545;-60
2021/09/03 06:57:39;;;;;;;31.30;16.50;;;;;;;14.56;88.32;100816.06;112247;1201;23998;-61
2021/09/03 07:00:11;;;;;;;29.10;16.20;;;;;;;14.69;88.22;100814.05;112299;1201;22438;-60
2021/09/03 07:02:40;;;;;;;28.30;14.80;;;;;;;14.79;87.94;100812.18;112289;1205;24099;-60
2021/09/03 07:05:12;;;;;;;26.60;14.70;;;;;;;14.91;87.69;100812.30;111896;1201;22454;-62
2021/09/03 07:07:46;;;;;;;31.30;15.00;;;;;;;15.00;87.58;100814.29;112306;1202;24100;-60
2021/09/03 07:10:14;;;;;;;29.00;13.20;;;;;;;15.09;87.42;100815.56;112036;1201;24449;-61
2021/09/03 07:12:43;;;;;;;25.40;12.30;;;;;;;15.19;87.41;100816.73;112301;1202;24054;-60
2021/09/03 07:15:13;;;;;;;24.80;13.20;;;;;;;15.29;87.33;100818.36;112231;1203;22447;-60
2021/09/03 07:17:41;;;;;;;31.30;13.00;;;;;;;15.40;87.21;100819.64;112297;1203;23118;-61
2021/09/03 07:20:12;;;;;;;26.60;13.30;;;;;;;15.49;86.79;100820.20;112034;1204;22451;-58
2021/09/03 07:22:41;;;;;;;25.30;12.50;;;;;;;15.59;86.77;100815.46;112169;1202;25147;-60
2021/09/03 07:25:11;;;;;;;24.80;12.80;;;;;;;15.70;86.96;100811.55;112152;1202;22456;-60
2021/09/03 07:27:40;;;;;;;24.90;11.90;;;;;;;15.81;86.60;100808.56;112142;1202;22483;-60
2021/09/03 07:30:11;;;;;;;25.80;11.60;;;;;;;15.87;86.03;100803.96;112311;1201;25340;-60
2021/09/03 07:32:41;;;;;;;27.60;12.30;;;;;;;15.94;85.96;100806.09;112210;1202;22641;-59
2021/09/03 07:35:12;;;;;;;23.80;12.60;;;;;;;16.01;85.84;100805.83;112216;1202;25332;-60
2021/09/03 07:37:41;;;;;;;27.10;11.10;;;;;;;16.10;85.81;100803.48;112166;1202;22449;-60
2021/09/03 07:40:12;;;;;;;24.50;10.60;;;;;;;16.21;85.86;100801.27;112265;1202;22443;-60
2021/09/03 07:42:42;;;;;;;24.20;10.30;;;;;;;16.33;85.48;100800.31;112079;1202;25186;-58
2021/09/03 07:45:13;;;;;;;27.70;10.10;;;;;;;16.41;84.97;100797.94;112302;1202;25043;-60
2021/09/03 07:47:42;;;;;;;24.60;10.90;;;;;;;16.47;84.50;100794.43;112296;1201;22614;-60
2021/09/03 07:50:11;;;;;;;20.50;9.80;;;;;;;16.54;84.63;100791.52;112261;1202;22434;-62
2021/09/03 07:52:40;;;;;;;19.50;9.10;;;;;;;16.62;84.35;100792.31;112217;1201;22447;-61
2021/09/03 07:55:10;;;;;;;22.30;8.60;;;;;;;16.70;83.84;100791.91;112165;1202;22498;-60
2021/09/03 07:57:38;;;;;;;21.20;8.80;;;;;;;16.76;83.66;100793.89;112257;1205;22483;-59
2021/09/03 08:00:09;;;;;;;21.20;8.60;;;;;;;16.83;83.44;100795.74;112289;1202;24360;-60
2021/09/03 08:02:38;;;;;;;19.20;8.20;;;;;;;16.92;83.43;100795.56;112284;1202;25058;-60
2021/09/03 08:05:09;;;;;;;20.20;8.10;;;;;;;17.01;83.24;100793.98;112179;1201;25040;-60
2021/09/03 08:07:41;;;;;;;17.80;8.30;;;;;;;17.11;82.96;100793.48;111988;1202;25157;-60
2021/09/03 08:10:11;;;;;;;20.50;8.80;;;;;;;17.19;82.71;100788.23;112113;1201;22469;-60
2021/09/03 08:12:39;;;;;;;25.30;9.40;;;;;;;17.26;82.43;100788.58;112061;1201;22466;-61
2021/09/03 08:15:11;;;;;;;20.40;8.60;;;;;;;17.34;82.32;100786.95;112076;1203;22459;-60
2021/09/03 08:17:39;;;;;;;20.10;8.40;;;;;;;17.43;82.19;100784.53;111948;1202;22546;-60
2021/09/03 08:20:15;;;;;;;18.90;8.60;;;;;;;17.49;81.63;100784.40;112000;1201;22419;-60
2021/09/03 08:22:47;;;;;;;22.00;8.20;;;;;;;17.54;81.24;100781.37;112046;1202;22471;-60
2021/09/03 08:25:17;;;;;;;20.70;8.70;;;;;;;17.59;80.88;100780.59;111981;1201;25042;-60
2021/09/03 08:27:46;;;;;;;21.40;9.30;;;;;;;17.64;80.74;100779.56;112056;1202;22846;-60
2021/09/03 08:30:15;;;;;;;20.00;8.60;;;;;;;17.69;80.11;100779.00;112133;1203;22440;-61
2021/09/03 08:32:45;;;;;;;21.70;8.10;;;;;;;17.75;80.08;100775.44;112092;1202;25341;-60
2021/09/03 08:35:14;;;;;;;19.60;8.00;;;;;;;17.79;79.66;100772.25;112053;1202;22432;-61
2021/09/03 08:37:42;;;;;;;20.30;8.50;;;;;;;17.85;79.50;100773.67;112163;1201;22477;-62
2021/09/03 08:40:13;;;;;;;18.70;7.40;;;;;;;17.93;79.25;100771.55;112093;1201;22434;-59
2021/09/03 08:42:43;;;;;;;20.60;8.80;;;;;;;18.02;79.25;100774.00;112024;1203;22459;-59
2021/09/03 08:45:15;;;;;;;17.20;7.40;;;;;;;18.07;78.61;100769.88;112077;1202;25198;-61
2021/09/03 08:47:45;;;;;;;18.90;7.20;;;;;;;18.15;78.58;100770.46;112277;1202;25089;-60
2021/09/03 08:50:17;;;;;;;21.50;7.80;;;;;;;18.27;78.66;100764.04;112147;1201;22541;-60
2021/09/03 08:52:47;;;;;;;17.20;6.40;;;;;;;18.39;78.64;100766.15;111996;1202;26947;-60
2021/09/03 08:55:16;;;;;;;17.50;6.80;;;;;;;18.54;78.07;100763.58;112022;1202;22516;-60
2021/09/03 08:57:45;;;;;;;22.20;7.20;;;;;;;18.65;77.56;100763.02;112010;1202;22487;-60
2021/09/03 09:00:23;;;;;;;15.70;5.70;;;;;;;18.73;75.92;100763.08;112197;1203;25294;-60
2021/09/03 09:03:00;;;;;;;18.60;6.50;;;;;;;18.78;75.97;100761.09;112286;1202;22430;-61
2021/09/03 09:06:01;;;;;;;14.60;6.30;;;;;;;18.77;75.62;100760.63;112367;1201;23916;-61
2021/09/03 09:08:32;;;;;;;19.60;6.30;;;;;;;18.82;75.17;100757.36;111812;1206;22459;-60
2021/09/03 09:11:04;;;;;;;16.60;5.90;;;;;;;18.80;74.60;100757.58;111792;1205;23133;-61
2021/09/03 09:13:35;;;;;;;18.00;6.20;;;;;;;18.81;74.52;100759.22;111645;1206;22551;-60
2021/09/03 09:16:09;;;;;;;16.80;6.50;;;;;;;18.85;74.01;100760.23;111803;1205;22502;-61
2021/09/03 09:18:41;;;;;;;16.80;4.90;;;;;;;18.92;74.11;100755.23;111877;1206;24070;-60
2021/09/03 09:21:17;;;;;;;13.20;4.40;;;;;;;18.99;73.18;100756.27;112123;1209;26326;-59
2021/09/03 09:23:52;;;;;;;15.20;5.50;;;;;;;19.03;72.53;100754.34;111930;1206;22535;-60
2021/09/03 09:26:25;;;;;;;16.20;5.20;;;;;;;19.05;72.38;100752.06;111806;1205;22565;-60
2021/09/03 09:28:54;;;;;;;16.00;4.80;;;;;;;19.13;72.43;100748.14;111686;1206;22454;-60
2021/09/03 09:31:32;;;;;;;10.80;4.80;;;;;;;19.25;72.30;100748.40;111699;1205;22473;-62
2021/09/03 09:34:11;;;;;;;13.60;5.30;;;;;;;19.36;71.94;100748.48;111578;1206;22478;-60
2021/09/03 09:36:41;;;;;;;13.20;4.80;;;;;;;19.49;71.90;100744.16;111727;1204;24064;-60
2021/09/03 09:39:10;;;;;;;14.70;4.90;;;;;;;19.63;71.49;100743.86;111742;1201;25176;-61
2021/09/03 09:44:33;;;;;;;11.10;4.50;;;;;;;19.80;69.76;100738.23;111915;1201;22395;-61
2021/09/03 09:47:06;;;;;;;13.90;4.40;;;;;;;19.88;69.86;100733.76;111933;1202;22540;-60
2021/09/03 09:49:35;;;;;;;18.10;5.20;;;;;;;19.95;69.66;100728.42;111893;1202;22883;-60
2021/09/03 09:52:04;;;;;;;;;;;;;;;20.02;68.73;100724.48;112017;1202;26281;-61
2021/09/03 09:54:33;;;;;;;11.30;3.80;;;;;;;20.00;68.48;100721.77;111971;1202;26380;-63
2021/09/03 09:57:04;;;;;;;13.50;4.20;;;;;;;19.99;67.90;100719.89;112007;1201;24410;-60
2021/09/03 09:59:35;;;;;;;14.50;4.40;;;;;;;19.97;67.63;100717.53;112124;1202;25186;-60
2021/09/03 10:02:06;;;;;;;16.40;4.80;;;;;;;19.94;66.74;100713.60;111923;1202;22513;-61
2021/09/03 10:04:34;;;;;;;14.90;4.50;;;;;;;19.90;67.36;100709.89;112171;1201;22440;-61
2021/09/03 10:07:04;;;;;;;11.90;3.70;;;;;;;19.87;67.22;100705.03;111959;1201;22530;-62
2021/09/03 10:09:32;;;;;;;;;;;;;;;19.84;67.65;100700.93;111891;1201;23074;-63
2021/09/03 10:12:02;;;;;;;12.70;3.70;;;;;;;19.87;67.21;100699.37;112050;1202;22437;-63
2021/09/03 10:14:34;;;;;;;8.60;3.00;;;;;;;19.92;67.04;100696.84;112067;1202;22979;-62
2021/09/03 10:17:04;;;;;;;11.20;3.60;;;;;;;19.97;66.39;100695.44;111991;1201;24211;-64
2021/09/03 10:19:33;;;;;;;;;;;;;;;20.00;65.72;100685.95;111963;1203;25037;-61
2021/09/03 10:22:04;;;;;;;11.40;3.70;;;;;;;20.02;65.46;100687.69;112062;1201;25175;-61
2021/09/03 10:24:35;;;;;;;12.60;3.40;;;;;;;20.05;65.81;100678.64;112036;1201;24191;-62
2021/09/03 10:27:05;;;;;;;12.80;3.90;;;;;;;20.10;65.19;100682.70;112206;1202;22441;-61
2021/09/03 10:29:36;;;;;;;9.50;3.80;;;;;;;20.19;65.64;100691.97;112222;1201;22468;-61
2021/09/03 10:32:23;;;;;;;11.50;3.60;;;;;;;20.24;65.05;100687.69;112121;1201;25640;-65
2021/09/03 10:35:06;;;;;;;11.50;3.60;;;;;;;20.28;65.10;100686.67;112078;1202;24068;-63
2021/09/03 10:37:38;;;;;;;12.10;3.20;;;;;;;20.29;64.38;100682.59;112003;1202;22721;-60
2021/09/03 10:40:28;;;;;;;12.10;3.40;;;;;;;20.32;64.35;100680.98;111959;1202;24306;-61
2021/09/03 10:42:59;;;;;;;;;;;;;;;20.40;63.23;100687.41;111705;1206;26065;-61
2021/09/03 10:45:30;;;;;;;10.70;2.90;;;;;;;20.43;63.05;100679.34;111804;1204;22465;-61
2021/09/03 10:48:11;;;;;;;11.40;3.90;;;;;;;20.49;63.58;100680.43;111716;1205;22604;-61
2021/09/03 10:50:44;;;;;;;12.60;4.10;;;;;;;20.52;64.01;100674.67;111593;1205;26000;-62
2021/09/03 10:53:24;;;;;;;12.80;3.20;;;;;;;20.54;63.42;100667.42;111548;1205;22601;-62
2021/09/03 10:56:08;;;;;;;9.80;2.60;;;;;;;20.55;63.01;100661.42;111892;1205;22439;-61
2021/09/03 10:58:46;;;;;;;11.20;3.90;;;;;;;20.58;61.99;100660.50;111754;1204;22511;-61
2021/09/03 11:01:35;;;;;;;10.80;3.10;;;;;;;20.60;62.24;100653.92;111973;1205;25281;-61
2021/09/03 11:04:07;;;;;;;9.50;3.10;;;;;;;20.60;62.23;100650.14;111693;1205;24844;-62
2021/09/03 11:06:37;;;;;;;7.40;2.80;;;;;;;20.58;62.06;100647.71;111794;1204;22762;-61
2021/09/03 11:09:21;;;;;;;15.00;3.30;;;;;;;20.54;62.36;100647.29;111357;1206;24221;-61
2021/09/03 11:11:52;;;;;;;13.30;4.10;;;;;;;20.53;62.45;100643.04;111780;1204;22436;-62
2021/09/03 11:14:22;;;;;;;10.30;2.90;;;;;;;20.55;62.47;100639.98;111830;1206;23790;-61
2021/09/03 11:16:54;;;;;;;10.20;3.10;;;;;;;20.61;62.37;100636.95;111659;1206;22458;-60
2021/09/03 11:19:25;;;;;;;13.70;3.10;;;;;;;20.68;62.32;100637.13;111647;1207;23661;-62
2021/09/03 11:21:57;;;;;;;9.60;2.70;;;;;;;20.73;61.63;100636.80;111707;1201;24060;-63
2021/09/03 11:24:29;;;;;;;10.90;2.90;;;;;;;20.74;60.58;100632.34;112045;1201;23117;-61
2021/09/03 11:26:58;;;;;;;9.80;3.40;;;;;;;20.74;60.73;100630.06;111877;1202;22490;-61